Time;durP1;ratioP1;P1;durP2;ratioP2;P2;SDS_P1;SDS_P2;PMS_P1;PMS_P2;Temp;Humidity;BMP_temperature;BMP_pressure;BME280_temperature;BME280_humidity;BME280_pressure;Samples;Min_cycle;Max_cycle;Signal;HPM_P1;HPM_P2
2023/11/25 00:00:51;;;;;;;6.25;2.13;;;;;;;12.29;57.16;92526.78;5040888;28;20036;-72
2023/11/25 00:03:17;;;;;;;5.45;2.13;;;;;;;12.16;57.97;92524.09;5105520;28;20028;-72
2023/11/25 00:05:42;;;;;;;8.98;2.75;;;;;;;12.22;59.03;92523.31;5073399;28;20037;-73
2023/11/25 00:08:07;;;;;;;4.35;2.08;;;;;;;12.17;59.24;92510.88;5071566;28;20089;-72
2023/11/25 00:10:33;;;;;;;8.40;2.17;;;;;;;12.28;57.52;92525.16;5103422;28;20505;-72
2023/11/25 00:12:59;;;;;;;6.00;2.17;;;;;;;12.23;57.78;92509.31;5088233;28;20492;-72
2023/11/25 00:15:24;;;;;;;7.70;2.80;;;;;;;12.22;57.98;92521.53;5088369;28;20476;-72
2023/11/25 00:17:53;;;;;;;10.20;2.13;;;;;;;12.20;57.79;92518.34;5071535;28;20032;-72
2023/11/25 00:20:19;;;;;;;6.45;2.00;;;;;;;12.23;58.22;92507.53;5104005;28;20033;-72
2023/11/25 00:22:45;;;;;;;7.07;2.70;;;;;;;12.16;58.87;92495.47;5071337;28;20105;-72
2023/11/25 00:25:11;;;;;;;7.55;2.72;;;;;;;12.38;61.20;92496.97;5088384;28;20111;-72
2023/11/25 00:27:37;;;;;;;4.63;1.80;;;;;;;12.26;59.29;92495.94;5069735;28;20039;-72
2023/11/25 00:30:04;;;;;;;5.70;2.60;;;;;;;12.41;59.94;92485.38;5071225;28;20033;-72
2023/11/25 00:32:30;;;;;;;4.75;2.30;;;;;;;12.47;63.66;92493.19;5071166;28;20496;-72
2023/11/25 00:34:55;;;;;;;6.32;2.00;;;;;;;11.98;61.65;92452.56;5071158;28;20037;-72
2023/11/25 00:37:21;;;;;;;5.18;1.70;;;;;;;11.75;59.52;92444.19;5070249;28;20041;-72
2023/11/25 00:39:47;;;;;;;4.90;1.83;;;;;;;12.04;58.70;92458.78;5087102;28;20524;-72
2023/11/25 00:42:13;;;;;;;5.68;1.98;;;;;;;12.21;59.32;92451.47;5104099;28;20052;-72
2023/11/25 00:44:38;;;;;;;7.10;2.30;;;;;;;12.16;59.27;92444.22;5086925;28;20075;-72
2023/11/25 00:47:05;;;;;;;6.57;1.95;;;;;;;12.12;59.36;92437.81;5070545;28;20483;-72
2023/11/25 00:49:36;;;;;;;7.50;1.80;;;;;;;12.12;58.51;92444.78;5070912;28;20025;-72
2023/11/25 00:52:02;;;;;;;3.40;1.60;;;;;;;12.07;58.39;92429.78;5072232;28;20021;-72
2023/11/25 00:54:29;;;;;;;9.85;2.15;;;;;;;12.29;59.75;92431.25;5069692;28;20480;-72
2023/11/25 00:56:54;;;;;;;6.18;1.63;;;;;;;11.99;59.37;92433.34;5070107;28;20087;-72
2023/11/25 00:59:20;;;;;;;4.78;1.70;;;;;;;11.94;59.17;92427.91;5070723;28;20033;-72
2023/11/25 01:01:46;;;;;;;9.05;1.77;;;;;;;11.99;59.88;92422.13;5104270;28;20023;-72
2023/11/25 01:04:11;;;;;;;5.55;1.58;;;;;;;12.14;59.75;92421.97;5047922;28;20025;-72
2023/11/25 01:06:38;;;;;;;5.97;1.58;;;;;;;12.20;60.20;92416.00;5050654;28;20060;-72
2023/11/25 01:09:03;;;;;;;6.15;1.60;;;;;;;12.13;60.49;92394.38;5033820;28;20537;-72
2023/11/25 01:11:29;;;;;;;4.32;1.50;;;;;;;12.05;60.55;92390.13;5050526;28;20040;-72
2023/11/25 01:13:54;;;;;;;4.20;1.50;;;;;;;11.90;60.81;92418.09;5061549;28;20043;-72
2023/11/25 01:16:20;;;;;;;4.88;1.70;;;;;;;11.99;61.75;92419.53;5070413;28;20051;-72
2023/11/25 01:18:45;;;;;;;6.20;1.70;;;;;;;12.14;65.33;92407.16;5070238;28;20028;-72
2023/11/25 01:21:10;;;;;;;5.07;1.98;;;;;;;11.87;65.08;92398.47;5104166;28;20490;-72
2023/11/25 01:23:36;;;;;;;5.68;1.88;;;;;;;11.91;64.68;92399.69;5068863;28;20039;-72
2023/11/25 01:26:02;;;;;;;5.18;2.10;;;;;;;11.95;64.74;92381.88;5071363;28;20033;-72
2023/11/25 01:28:29;;;;;;;6.20;1.70;;;;;;;11.88;65.57;92379.25;5071540;28;20035;-72
2023/11/25 01:30:55;;;;;;;3.67;1.95;;;;;;;11.75;67.35;92376.56;5068565;28;20035;-72
2023/11/25 01:33:20;;;;;;;3.90;1.50;;;;;;;11.56;65.55;92363.28;5069760;28;20028;-72
2023/11/25 01:35:46;;;;;;;5.07;1.80;;;;;;;11.53;68.23;92376.66;5069981;28;20033;-72
2023/11/25 01:38:13;;;;;;;5.57;1.75;;;;;;;11.14;66.77;92365.03;5069865;28;20025;-72
2023/11/25 01:40:38;;;;;;;5.30;1.58;;;;;;;11.22;69.83;92373.66;5068515;28;20482;-72
2023/11/25 01:43:10;;;;;;;3.25;1.40;;;;;;;11.19;70.20;92377.44;5053138;28;20082;-72
2023/11/25 01:45:35;;;;;;;5.13;1.42;;;;;;;11.34;71.19;92366.97;5070181;28;20032;-72
2023/11/25 01:48:02;;;;;;;4.13;1.30;;;;;;;11.15;72.32;92371.81;5086725;28;20025;-72
2023/11/25 01:50:29;;;;;;;2.72;1.20;;;;;;;11.09;72.44;92371.78;5067847;28;20039;-71
2023/11/25 01:52:54;;;;;;;4.63;1.60;;;;;;;11.04;73.05;92372.34;5102645;28;20036;-72
2023/11/25 01:55:21;;;;;;;4.05;1.85;;;;;;;10.92;74.61;92366.88;5103307;28;20055;-71
2023/11/25 01:57:47;;;;;;;6.88;2.20;;;;;;;10.82;73.76;92368.19;5070913;28;20021;-72
2023/11/25 02:00:13;;;;;;;5.50;2.78;;;;;;;10.69;73.84;92367.06;5065170;28;20063;-72
2023/11/25 02:02:39;;;;;;;6.63;3.38;;;;;;;10.48;73.09;92361.91;5033863;28;20043;-72
2023/11/25 02:05:05;;;;;;;8.70;4.25;;;;;;;10.31;72.93;92350.13;5036721;28;20044;-72
2023/11/25 02:07:31;;;;;;;18.88;6.88;;;;;;;10.38;71.72;92361.41;5051658;28;20035;-72
2023/11/25 02:09:56;;;;;;;6.03;2.72;;;;;;;10.27;72.02;92366.09;5069103;28;20484;-71
2023/11/25 02:12:22;;;;;;;5.22;2.42;;;;;;;9.76;73.03;92357.53;5086128;28;20024;-71
2023/11/25 02:14:47;;;;;;;4.07;2.35;;;;;;;9.85;74.08;92377.97;5069674;28;20029;-71
2023/11/25 02:17:16;;;;;;;9.23;2.33;;;;;;;9.96;75.00;92381.09;5051600;28;20471;-72
2023/11/25 02:19:42;;;;;;;7.50;2.67;;;;;;;9.91;76.28;92393.78;5069495;28;20044;-71
2023/11/25 02:22:10;;;;;;;6.03;2.55;;;;;;;9.75;75.27;92403.41;5069161;28;20032;-71
2023/11/25 02:24:35;;;;;;;5.95;3.00;;;;;;;9.09;77.03;92382.56;5052895;28;20552;-71
2023/11/25 02:27:05;;;;;;;8.25;3.40;;;;;;;9.05;77.63;92354.59;5085017;28;20033;-71
2023/11/25 02:29:32;;;;;;;6.93;3.80;;;;;;;9.05;77.96;92357.19;5086087;28;20032;-71
2023/11/25 02:31:58;;;;;;;5.63;3.53;;;;;;;9.07;77.53;92394.88;5069304;28;20136;-71
2023/11/25 02:34:27;;;;;;;5.30;3.55;;;;;;;8.92;78.60;92376.72;5101533;28;20028;-72
2023/11/25 02:36:53;;;;;;;4.85;3.85;;;;;;;8.77;79.50;92367.31;5085678;28;20036;-71
2023/11/25 02:39:18;;;;;;;5.63;3.95;;;;;;;8.74;79.99;92360.72;5069329;28;20042;-71
2023/11/25 02:41:51;;;;;;;6.18;4.22;;;;;;;8.93;79.96;92378.34;5103054;28;20033;-71
2023/11/25 02:44:17;;;;;;;6.75;4.75;;;;;;;8.82;80.31;92375.38;5084779;28;20112;-71
2023/11/25 02:46:46;;;;;;;9.65;5.35;;;;;;;8.58;80.98;92366.84;5069056;28;20029;-72
2023/11/25 02:49:12;;;;;;;5.90;4.57;;;;;;;8.79;81.23;92381.69;5085861;28;20031;-72
2023/11/25 02:51:37;;;;;;;6.15;3.80;;;;;;;8.48;79.97;92361.91;5069247;28;20040;-71
2023/11/25 02:54:05;;;;;;;6.07;4.30;;;;;;;8.30;81.08;92382.03;5054138;28;20037;-71
2023/11/25 02:56:31;;;;;;;6.07;4.25;;;;;;;8.34;81.82;92372.97;5032908;28;20068;-71
2023/11/25 02:58:57;;;;;;;7.18;4.07;;;;;;;8.32;81.14;92384.47;5049086;28;20021;-71
2023/11/25 03:01:23;;;;;;;4.00;3.42;;;;;;;8.41;80.55;92361.00;5048743;28;20029;-71
2023/11/25 03:03:49;;;;;;;5.65;3.15;;;;;;;8.19;81.50;92379.84;5073030;28;20040;-71
2023/11/25 03:06:22;;;;;;;4.80;3.50;;;;;;;8.17;81.46;92384.41;5072786;28;20032;-71
2023/11/25 03:08:48;;;;;;;4.32;3.53;;;;;;;7.85;81.64;92373.25;5072659;28;20456;-71
2023/11/25 03:11:18;;;;;;;4.45;2.55;;;;;;;7.57;81.30;92378.88;5071310;28;20044;-71
2023/11/25 03:13:44;;;;;;;6.82;3.10;;;;;;;7.51;82.45;92381.34;5106374;28;20029;-71
2023/11/25 03:16:10;;;;;;;4.43;3.25;;;;;;;7.65;81.86;92348.81;5072623;28;20510;-71
2023/11/25 03:18:36;;;;;;;4.15;3.00;;;;;;;7.35;81.98;92377.03;5089758;28;20036;-71
2023/11/25 03:21:01;;;;;;;5.50;3.33;;;;;;;7.20;83.00;92371.75;5104731;28;20042;-71
2023/11/25 03:23:26;;;;;;;4.28;3.08;;;;;;;7.13;83.37;92376.78;5089338;28;20569;-71
2023/11/25 03:25:52;;;;;;;3.35;2.75;;;;;;;7.12;83.21;92377.75;5072561;28;20418;-71
2023/11/25 03:28:19;;;;;;;4.22;2.83;;;;;;;7.30;82.58;92369.81;5072459;28;20494;-71
2023/11/25 03:30:46;;;;;;;4.93;2.50;;;;;;;7.07;82.51;92361.13;5103852;28;20033;-71
2023/11/25 03:33:11;;;;;;;2.70;1.75;;;;;;;7.06;82.53;92382.78;5089067;28;20033;-72
2023/11/25 03:35:36;;;;;;;2.95;1.85;;;;;;;7.28;81.76;92373.53;5072545;28;20458;-71
2023/11/25 03:38:02;;;;;;;4.85;3.00;;;;;;;7.06;82.46;92375.03;5072085;28;20040;-71
2023/11/25 03:40:28;;;;;;;6.65;3.28;;;;;;;7.33;83.37;92379.00;5073883;28;20032;-71
2023/11/25 03:42:54;;;;;;;5.50;3.40;;;;;;;7.15;83.03;92359.34;5073298;28;20035;-71
2023/11/25 03:45:21;;;;;;;3.55;2.50;;;;;;;7.28;82.08;92351.09;5073834;28;20028;-71
2023/11/25 03:47:46;;;;;;;6.38;2.92;;;;;;;7.43;82.26;92350.38;5054286;28;20035;-71
2023/11/25 03:50:12;;;;;;;4.22;2.97;;;;;;;7.54;81.88;92353.38;5055482;28;20398;-71
2023/11/25 03:52:40;;;;;;;3.30;2.55;;;;;;;7.31;81.91;92329.28;5038527;28;20468;-71
2023/11/25 03:55:07;;;;;;;3.97;2.92;;;;;;;7.36;82.42;92356.22;5055014;28;20079;-71
2023/11/25 03:57:33;;;;;;;2.72;1.73;;;;;;;7.13;82.69;92356.13;5054048;28;20059;-71
2023/11/25 03:59:58;;;;;;;3.00;2.10;;;;;;;7.27;82.61;92354.66;5105762;28;20025;-71
2023/11/25 04:02:24;;;;;;;3.17;2.10;;;;;;;7.39;81.78;92337.00;5088610;28;20459;-69
2023/11/25 04:04:49;;;;;;;2.78;2.05;;;;;;;7.51;82.27;92348.56;5071474;28;20037;-70
2023/11/25 04:07:15;;;;;;;2.22;1.60;;;;;;;7.44;81.94;92334.72;5072493;28;20036;-70
2023/11/25 04:09:40;;;;;;;9.93;4.85;;;;;;;7.26;82.62;92339.31;5054730;28;20529;-70
2023/11/25 04:12:06;;;;;;;3.28;1.85;;;;;;;7.24;82.52;92331.72;5072909;28;20037;-70
2023/11/25 04:14:31;;;;;;;2.33;1.40;;;;;;;7.39;82.10;92332.63;5085084;28;20020;-70
2023/11/25 04:16:57;;;;;;;1.73;1.20;;;;;;;6.87;82.66;92329.75;5072714;28;20063;-70
2023/11/25 04:19:22;;;;;;;2.00;1.30;;;;;;;6.75;83.08;92338.81;5072942;28;20475;-70
2023/11/25 04:21:50;;;;;;;3.17;1.33;;;;;;;6.90;82.25;92330.19;5071521;28;20025;-70
2023/11/25 04:24:15;;;;;;;2.92;1.42;;;;;;;6.97;82.29;92337.31;5070115;28;20081;-70
2023/11/25 04:26:41;;;;;;;2.08;1.60;;;;;;;6.88;82.16;92324.44;5086324;28;20032;-70
2023/11/25 04:29:07;;;;;;;2.83;1.67;;;;;;;7.00;82.25;92337.78;5086877;28;20511;-70
2023/11/25 04:31:32;;;;;;;2.30;1.40;;;;;;;6.89;81.75;92309.75;5102660;28;20044;-70
2023/11/25 04:33:58;;;;;;;1.90;1.05;;;;;;;6.98;81.84;92334.53;5071432;28;20032;-70
2023/11/25 04:36:26;;;;;;;2.38;1.30;;;;;;;6.99;82.18;92358.59;5087218;28;20040;-70
2023/11/25 04:38:53;;;;;;;2.65;1.15;;;;;;;6.55;82.85;92339.16;5069238;28;20039;-70
2023/11/25 04:41:19;;;;;;;3.10;2.25;;;;;;;6.32;83.50;92333.03;5071044;28;20052;-70
2023/11/25 04:43:44;;;;;;;2.38;1.70;;;;;;;6.34;83.82;92352.53;5087723;28;20122;-70
2023/11/25 04:46:10;;;;;;;8.38;4.30;;;;;;;6.36;83.75;92353.19;5070967;28;20414;-70
2023/11/25 04:48:36;;;;;;;3.45;2.55;;;;;;;6.41;83.26;92357.88;5086110;28;20016;-70
2023/11/25 04:51:01;;;;;;;2.75;1.80;;;;;;;6.09;83.76;92354.28;5104822;28;20119;-70
2023/11/25 04:53:26;;;;;;;1.95;1.10;;;;;;;5.70;84.47;92359.19;5087472;28;20032;-70
2023/11/25 04:55:52;;;;;;;1.52;0.90;;;;;;;6.17;83.50;92351.72;5070764;28;20049;-70
2023/11/25 04:58:18;;;;;;;2.10;1.55;;;;;;;6.09;83.95;92338.03;5085951;28;20040;-70
2023/11/25 05:00:44;;;;;;;3.05;1.00;;;;;;;6.11;83.06;92351.56;5071846;28;20044;-70
2023/11/25 05:03:09;;;;;;;3.47;1.92;;;;;;;5.90;82.73;92354.56;5071795;28;20025;-70
2023/11/25 05:05:35;;;;;;;2.25;1.60;;;;;;;5.79;83.39;92363.38;5072185;28;20029;-70
2023/11/25 05:08:00;;;;;;;3.83;3.42;;;;;;;5.66;83.88;92358.72;5068633;28;20399;-70
2023/11/25 05:10:28;;;;;;;3.70;2.28;;;;;;;5.77;83.94;92363.56;5102807;28;20036;-69
2023/11/25 05:12:53;;;;;;;3.90;2.03;;;;;;;5.83;83.75;92380.97;5069647;28;20469;-70
2023/11/25 05:15:22;;;;;;;3.72;1.10;;;;;;;5.91;83.12;92371.66;5069267;28;20490;-70
2023/11/25 05:17:47;;;;;;;2.22;1.10;;;;;;;5.94;82.46;92356.69;5070235;28;20032;-70
2023/11/25 05:20:15;;;;;;;1.70;1.00;;;;;;;5.67;81.47;92364.66;5071856;28;20081;-70
2023/11/25 05:22:41;;;;;;;1.60;0.90;;;;;;;5.45;81.55;92376.34;5086653;28;20032;-70
2023/11/25 05:25:10;;;;;;;1.75;0.75;;;;;;;5.36;81.95;92378.88;5103996;28;20024;-70
2023/11/25 05:27:35;;;;;;;1.65;0.80;;;;;;;5.49;81.73;92370.72;5084444;28;20042;-70
2023/11/25 05:30:01;;;;;;;1.80;1.05;;;;;;;5.63;81.96;92378.81;5060756;28;20040;-70
2023/11/25 05:32:27;;;;;;;2.30;1.45;;;;;;;5.19;81.86;92351.47;5064134;28;20024;-70
2023/11/25 05:34:53;;;;;;;3.30;2.03;;;;;;;5.43;81.71;92388.56;5064184;28;20028;-71
2023/11/25 05:37:19;;;;;;;2.60;1.65;;;;;;;5.47;81.56;92410.47;5065720;28;20036;-71
2023/11/25 05:39:45;;;;;;;8.75;5.22;;;;;;;4.96;81.80;92404.41;5065025;28;20410;-71
2023/11/25 05:42:11;;;;;;;3.05;1.75;;;;;;;4.97;81.70;92404.28;5066573;28;20086;-71
2023/11/25 05:44:37;;;;;;;2.65;1.27;;;;;;;4.93;81.60;92419.22;5048928;28;20503;-71
2023/11/25 05:47:02;;;;;;;5.93;3.17;;;;;;;4.97;81.41;92424.84;5066364;28;20033;-71
2023/11/25 05:49:28;;;;;;;2.05;1.13;;;;;;;4.79;81.55;92426.66;5064606;28;20033;-71
2023/11/25 05:51:54;;;;;;;1.50;0.82;;;;;;;4.68;81.37;92425.13;5063968;28;20033;-70
2023/11/25 05:54:19;;;;;;;2.20;1.50;;;;;;;4.39;81.09;92444.19;5082359;28;20392;-70
2023/11/25 05:56:45;;;;;;;2.30;0.98;;;;;;;4.15;81.96;92469.66;5049438;28;20056;-70
2023/11/25 05:59:11;;;;;;;1.10;0.63;;;;;;;4.09;82.07;92468.47;5065486;28;20111;-70
2023/11/25 06:01:37;;;;;;;1.20;0.70;;;;;;;3.90;82.60;92456.59;5047195;28;20024;-70
2023/11/25 06:04:03;;;;;;;1.30;0.60;;;;;;;3.87;81.57;92451.72;5065319;28;20029;-70
2023/11/25 06:06:28;;;;;;;5.20;2.83;;;;;;;3.62;80.65;92458.34;5048668;28;20555;-70
2023/11/25 06:08:53;;;;;;;3.35;1.70;;;;;;;3.60;81.30;92480.00;5064654;28;20484;-70
2023/11/25 06:11:23;;;;;;;2.00;1.00;;;;;;;3.32;81.19;92462.00;5063988;28;20036;-70
2023/11/25 06:13:48;;;;;;;3.35;1.10;;;;;;;3.18;80.70;92485.56;5066898;28;20043;-70
2023/11/25 06:16:14;;;;;;;2.78;1.33;;;;;;;3.14;80.28;92483.22;5048778;28;20040;-70
2023/11/25 06:18:40;;;;;;;4.68;2.83;;;;;;;3.06;79.73;92507.97;5064587;28;20060;-70
2023/11/25 06:21:05;;;;;;;2.35;1.30;;;;;;;2.91;79.88;92474.25;5030749;28;20079;-70
2023/11/25 06:23:32;;;;;;;2.08;1.27;;;;;;;2.97;81.11;92514.75;5067306;28;20122;-70
2023/11/25 06:25:57;;;;;;;3.88;1.92;;;;;;;2.82;79.88;92511.00;5065502;28;20430;-70
2023/11/25 06:28:24;;;;;;;3.08;1.40;;;;;;;2.69;80.98;92506.13;5064883;28;20525;-70
2023/11/25 06:30:53;;;;;;;1.95;1.33;;;;;;;2.66;80.49;92522.59;5063518;28;20043;-71
2023/11/25 06:33:25;;;;;;;2.80;1.90;;;;;;;2.59;81.08;92508.72;5096322;28;20032;-70
2023/11/25 06:35:51;;;;;;;2.28;1.50;;;;;;;2.64;81.88;92539.84;5065337;28;20074;-70
2023/11/25 06:38:17;;;;;;;1.65;1.00;;;;;;;2.66;81.49;92535.41;5100969;28;20040;-70
2023/11/25 06:40:42;;;;;;;2.35;1.50;;;;;;;2.76;81.12;92543.13;5033834;28;20038;-70
2023/11/25 06:43:08;;;;;;;3.45;1.83;;;;;;;2.66;81.20;92557.69;5070760;28;20452;-70
2023/11/25 06:45:34;;;;;;;2.70;1.67;;;;;;;2.66;80.94;92558.50;5069460;28;20028;-70
2023/11/25 06:48:03;;;;;;;1.60;0.95;;;;;;;2.59;81.27;92562.56;5068394;28;20044;-71
2023/11/25 06:50:28;;;;;;;5.22;2.85;;;;;;;2.60;80.97;92571.03;5067337;28;20045;-70
2023/11/25 06:52:54;;;;;;;4.57;1.30;;;;;;;2.53;81.94;92572.50;5070683;28;20028;-71
2023/11/25 06:55:19;;;;;;;2.92;1.45;;;;;;;2.71;81.94;92570.09;5052106;28;20056;-70
2023/11/25 06:57:45;;;;;;;5.30;3.22;;;;;;;2.73;82.24;92583.59;5069396;28;20040;-70
2023/11/25 07:00:14;;;;;;;8.80;5.10;;;;;;;2.71;81.77;92590.63;5069964;28;20041;-70
2023/11/25 07:02:40;;;;;;;2.03;1.15;;;;;;;2.67;81.99;92575.50;5067850;28;20028;-70
2023/11/25 07:05:07;;;;;;;4.20;1.92;;;;;;;2.68;81.68;92576.31;5068861;28;20038;-71
2023/11/25 07:07:33;;;;;;;3.47;1.92;;;;;;;2.71;81.42;92577.81;5068897;28;20554;-70
2023/11/25 07:09:59;;;;;;;6.40;3.50;;;;;;;2.82;81.24;92580.22;5068132;28;20029;-71
2023/11/25 07:12:24;;;;;;;1.80;1.02;;;;;;;2.59;81.39;92570.25;5067239;28;20035;-70
2023/11/25 07:14:49;;;;;;;10.40;5.47;;;;;;;2.65;81.36;92569.69;5068741;28;20037;-71
2023/11/25 07:17:15;;;;;;;7.97;4.28;;;;;;;2.88;80.80;92572.00;5051350;28;20117;-70
2023/11/25 07:19:42;;;;;;;10.52;5.43;;;;;;;2.51;80.58;92541.06;5067601;28;20035;-70
2023/11/25 07:22:08;;;;;;;12.93;6.15;;;;;;;2.37;80.74;92557.69;5066830;28;20042;-70
2023/11/25 07:24:34;;;;;;;17.38;8.73;;;;;;;2.37;81.42;92545.66;5070451;28;20037;-70
2023/11/25 07:27:04;;;;;;;12.10;6.38;;;;;;;2.46;81.23;92555.09;5052259;28;20041;-70
2023/11/25 07:29:34;;;;;;;5.38;2.88;;;;;;;2.62;81.35;92546.09;5067563;28;20452;-70
2023/11/25 07:32:00;;;;;;;4.60;2.22;;;;;;;2.87;80.48;92544.72;5067410;28;20036;-70
2023/11/25 07:34:31;;;;;;;16.02;7.15;;;;;;;2.74;80.56;92539.06;5051640;28;20036;-70
2023/11/25 07:36:56;;;;;;;18.35;9.77;;;;;;;2.55;80.74;92537.31;5067346;28;20529;-69
2023/11/25 07:39:23;;;;;;;20.83;10.88;;;;;;;2.65;80.40;92545.81;5051452;28;20049;-71
2023/11/25 07:41:53;;;;;;;7.28;4.30;;;;;;;2.72;79.79;92517.88;5065976;28;20490;-69
2023/11/25 07:44:21;;;;;;;11.13;5.93;;;;;;;2.53;79.71;92540.00;5069324;28;20033;-70
2023/11/25 07:46:47;;;;;;;7.10;3.75;;;;;;;2.72;80.31;92528.13;5068746;28;20028;-69
2023/11/25 07:49:13;;;;;;;6.10;3.70;;;;;;;2.60;80.18;92537.72;5067783;28;20029;-70
2023/11/25 07:51:38;;;;;;;4.13;2.30;;;;;;;2.52;80.50;92540.94;5067552;28;20074;-69
2023/11/25 07:54:04;;;;;;;4.97;2.92;;;;;;;2.30;81.64;92523.25;5067738;28;20407;-70
2023/11/25 07:56:30;;;;;;;3.58;2.00;;;;;;;2.51;81.32;92523.97;5068655;28;20052;-69
2023/11/25 07:58:55;;;;;;;10.40;5.25;;;;;;;2.47;81.02;92530.28;5051448;28;20043;-69
2023/11/25 08:01:21;;;;;;;10.43;4.95;;;;;;;2.61;80.58;92537.56;5066471;28;20032;-71
2023/11/25 08:03:46;;;;;;;9.40;3.65;;;;;;;2.74;80.27;92532.19;5050997;28;20028;-70
2023/11/25 08:06:15;;;;;;;22.55;10.98;;;;;;;2.47;80.42;92527.72;5069534;28;20029;-69
2023/11/25 08:08:40;;;;;;;14.23;7.32;;;;;;;2.27;81.02;92520.97;5067290;28;20028;-71
2023/11/25 08:11:06;;;;;;;24.75;10.23;;;;;;;2.00;81.06;92484.78;5048997;28;20033;-70
2023/11/25 08:13:32;;;;;;;8.20;4.32;;;;;;;2.02;81.42;92523.09;5068820;28;20038;-69
2023/11/25 08:15:57;;;;;;;7.55;4.15;;;;;;;2.24;81.35;92522.84;5067628;28;20035;-69
2023/11/25 08:18:23;;;;;;;4.88;2.50;;;;;;;2.44;79.76;92525.44;5067802;28;20490;-70
2023/11/25 08:20:48;;;;;;;3.85;2.10;;;;;;;2.35;79.50;92510.88;5067475;28;20090;-69
2023/11/25 08:23:15;;;;;;;3.72;2.33;;;;;;;2.36;79.08;92536.34;5068542;28;20100;-70
2023/11/25 08:25:41;;;;;;;6.53;3.78;;;;;;;2.14;79.89;92516.88;5069722;28;20029;-70
2023/11/25 08:28:07;;;;;;;15.90;7.70;;;;;;;2.34;80.61;92539.97;5068795;28;20043;-69
2023/11/25 08:30:32;;;;;;;8.20;4.75;;;;;;;2.40;80.24;92531.78;5066010;28;20064;-70
2023/11/25 08:32:59;;;;;;;6.57;3.70;;;;;;;2.34;80.00;92535.69;5066652;28;20074;-70
2023/11/25 08:35:25;;;;;;;3.63;2.17;;;;;;;2.36;80.88;92535.53;5067450;28;20035;-69
2023/11/25 08:37:50;;;;;;;6.25;3.75;;;;;;;2.13;80.71;92535.78;5066396;28;20033;-69
2023/11/25 08:40:16;;;;;;;4.63;2.92;;;;;;;2.26;80.15;92544.94;5067084;28;20036;-69
2023/11/25 08:42:45;;;;;;;6.30;3.40;;;;;;;2.35;79.91;92551.88;5068001;28;20048;-70
2023/11/25 08:45:11;;;;;;;6.55;4.95;;;;;;;2.28;80.17;92540.50;5066758;28;20410;-69
2023/11/25 08:47:38;;;;;;;4.25;3.40;;;;;;;2.22;79.74;92532.41;5066466;28;20028;-69
2023/11/25 08:50:07;;;;;;;5.80;2.83;;;;;;;2.16;79.58;92519.34;5033820;28;20136;-69
2023/11/25 08:52:38;;;;;;;4.07;3.00;;;;;;;2.29;79.05;92530.16;5064911;28;20671;-69
2023/11/25 08:55:07;;;;;;;5.80;3.92;;;;;;;2.07;79.71;92536.31;5046919;28;20032;-69
2023/11/25 08:57:36;;;;;;;4.95;3.47;;;;;;;1.94;80.83;92533.16;5049383;28;20112;-69
2023/11/25 09:00:14;;;;;;;5.05;3.22;;;;;;;1.98;80.59;92537.09;5068217;28;20044;-69
2023/11/25 09:02:45;;;;;;;6.00;3.65;;;;;;;1.82;80.62;92537.59;5066924;28;20146;-69
2023/11/25 09:05:10;;;;;;;6.40;3.78;;;;;;;1.99;80.90;92528.47;5078414;28;20062;-69
2023/11/25 09:07:38;;;;;;;28.20;11.15;;;;;;;2.10;80.72;92530.13;5033561;28;20033;-69
2023/11/25 09:10:05;;;;;;;20.83;11.18;;;;;;;1.99;80.93;92531.84;5066276;28;20032;-70
2023/11/25 09:12:31;;;;;;;12.68;8.55;;;;;;;1.76;81.37;92517.63;5065855;28;20047;-69
2023/11/25 09:14:57;;;;;;;8.27;5.05;;;;;;;1.88;80.90;92534.50;5049870;28;20060;-69
2023/11/25 09:17:22;;;;;;;7.80;5.60;;;;;;;2.10;81.17;92533.47;5066466;28;20505;-69
2023/11/25 09:19:47;;;;;;;6.90;5.05;;;;;;;1.96;81.29;92518.50;5066085;28;20036;-70
2023/11/25 09:22:13;;;;;;;7.90;5.40;;;;;;;1.87;81.63;92512.41;5065902;28;20024;-69
2023/11/25 09:24:40;;;;;;;9.25;5.10;;;;;;;1.95;81.96;92502.31;5066474;28;20036;-69
2023/11/25 09:27:05;;;;;;;16.63;9.93;;;;;;;1.95;81.52;92521.97;5048767;28;20193;-69
2023/11/25 09:29:31;;;;;;;10.65;6.38;;;;;;;2.05;81.30;92515.13;5081984;28;20329;-69
2023/11/25 09:31:56;;;;;;;5.40;4.22;;;;;;;2.00;81.06;92514.72;5066309;28;20078;-69
2023/11/25 09:34:22;;;;;;;10.88;8.85;;;;;;;1.99;81.22;92515.66;5068224;28;20048;-70
2023/11/25 09:36:47;;;;;;;11.88;10.32;;;;;;;1.95;81.30;92511.72;5067496;28;20044;-69
2023/11/25 09:39:14;;;;;;;5.38;3.83;;;;;;;2.06;80.90;92519.31;5065735;28;20028;-70
2023/11/25 09:41:40;;;;;;;5.35;3.47;;;;;;;1.85;81.58;92508.34;5097402;28;20111;-69
2023/11/25 09:44:08;;;;;;;5.63;3.95;;;;;;;1.82;81.04;92501.75;5098913;28;20370;-69
2023/11/25 09:46:33;;;;;;;7.70;5.20;;;;;;;1.78;82.15;92506.31;5049197;28;20035;-69
2023/11/25 09:48:59;;;;;;;6.85;4.65;;;;;;;1.89;81.45;92507.16;5081453;28;20024;-69
2023/11/25 09:51:24;;;;;;;8.50;5.25;;;;;;;1.81;81.58;92496.75;5047558;28;20028;-69
2023/11/25 09:53:52;;;;;;;10.95;7.72;;;;;;;1.65;81.80;92485.28;5048513;28;20044;-69
2023/11/25 09:56:18;;;;;;;8.77;6.30;;;;;;;1.89;82.46;92489.22;5048956;28;20040;-69
2023/11/25 09:58:44;;;;;;;9.27;6.72;;;;;;;1.77;82.06;92468.84;5031074;28;20059;-69
2023/11/25 10:01:12;;;;;;;7.55;5.50;;;;;;;2.16;80.29;92479.16;5048420;28;20497;-68
2023/11/25 10:03:40;;;;;;;7.50;4.47;;;;;;;2.13;80.49;92479.41;5066868;28;20140;-69
2023/11/25 10:06:05;;;;;;;7.82;5.18;;;;;;;1.87;80.86;92450.97;5049709;28;20502;-69
2023/11/25 10:08:32;;;;;;;7.57;4.93;;;;;;;1.99;81.02;92479.81;5065246;28;20020;-68
2023/11/25 10:11:08;;;;;;;10.25;7.40;;;;;;;2.00;80.70;92468.63;5060814;28;20769;-69
2023/11/25 10:13:42;;;;;;;7.32;4.28;;;;;;;1.80;81.83;92437.06;5065611;28;20403;-69
2023/11/25 10:16:08;;;;;;;9.10;6.45;;;;;;;1.96;82.25;92457.84;5067122;28;20098;-69
2023/11/25 10:18:36;;;;;;;5.63;3.78;;;;;;;1.70;82.69;92460.09;5048212;28;20060;-69
2023/11/25 10:21:05;;;;;;;4.65;3.25;;;;;;;1.66;83.26;92460.47;5047490;28;20146;-69
2023/11/25 10:23:30;;;;;;;5.53;3.97;;;;;;;1.71;83.64;92448.09;5033269;28;20084;-69
2023/11/25 10:25:59;;;;;;;6.90;4.75;;;;;;;1.94;82.64;92456.34;5031769;28;20060;-69
2023/11/25 10:28:25;;;;;;;5.63;4.32;;;;;;;2.02;82.99;92456.50;5080119;28;20410;-69
2023/11/25 10:30:59;;;;;;;4.10;2.90;;;;;;;2.02;82.79;92456.50;5047317;28;20058;-69
2023/11/25 10:33:26;;;;;;;6.53;3.85;;;;;;;2.33;82.07;92452.06;5064232;28;20103;-69
2023/11/25 10:35:52;;;;;;;7.20;4.25;;;;;;;2.06;82.38;92451.91;5065648;28;20170;-69
2023/11/25 10:38:21;;;;;;;6.55;4.82;;;;;;;1.93;82.96;92457.31;5048301;28;20037;-68
2023/11/25 10:40:48;;;;;;;8.93;5.70;;;;;;;1.77;82.82;92442.44;5063731;28;20115;-69
2023/11/25 10:43:14;;;;;;;4.95;3.80;;;;;;;1.92;83.16;92430.06;5080653;28;20029;-69
2023/11/25 10:45:39;;;;;;;5.90;3.95;;;;;;;2.26;82.83;92437.34;5047389;28;20560;-69
2023/11/25 10:48:05;;;;;;;4.25;3.38;;;;;;;2.29;82.39;92427.66;5047866;28;20077;-74
2023/11/25 10:50:31;;;;;;;4.55;3.20;;;;;;;2.09;82.90;92420.91;5044556;28;20051;-69
2023/11/25 10:53:00;;;;;;;5.15;3.38;;;;;;;2.18;82.55;92420.13;5064655;28;20417;-68
2023/11/25 10:55:26;;;;;;;11.57;5.43;;;;;;;2.26;81.89;92402.31;5049300;28;20438;-69
2023/11/25 10:57:52;;;;;;;12.35;6.18;;;;;;;2.35;82.14;92385.31;5048611;28;20047;-69
2023/11/25 11:00:19;;;;;;;9.13;6.00;;;;;;;2.65;82.16;92390.25;5063349;28;20463;-68
2023/11/25 11:02:49;;;;;;;8.80;5.70;;;;;;;2.63;81.92;92379.31;5064564;28;20036;-68
2023/11/25 11:05:18;;;;;;;7.47;5.95;;;;;;;2.35;82.76;92386.13;5048772;28;20142;-66
2023/11/25 11:07:48;;;;;;;7.85;5.53;;;;;;;2.29;82.29;92370.50;5047513;28;20086;-68
2023/11/25 11:10:17;;;;;;;10.52;7.80;;;;;;;2.36;82.57;92366.41;5066308;28;20044;-69
2023/11/25 11:12:45;;;;;;;9.55;7.40;;;;;;;2.32;82.39;92359.97;5048657;28;20047;-68
2023/11/25 11:15:15;;;;;;;10.27;8.18;;;;;;;2.32;81.91;92344.59;5049400;28;20041;-68
2023/11/25 11:17:53;;;;;;;8.10;6.60;;;;;;;2.28;82.98;92348.34;5049077;28;20024;-69
2023/11/25 11:20:19;;;;;;;6.85;5.05;;;;;;;2.29;82.49;92342.31;5065714;28;20040;-68
2023/11/25 11:22:44;;;;;;;13.80;6.85;;;;;;;2.45;81.77;92322.00;5048791;28;20513;-68
2023/11/25 11:25:20;;;;;;;10.70;7.22;;;;;;;2.64;82.32;92337.34;5070326;28;20043;-69
2023/11/25 11:27:57;;;;;;;9.50;5.80;;;;;;;2.72;81.33;92344.34;5052249;28;20085;-68
2023/11/25 11:30:40;;;;;;;9.63;7.18;;;;;;;2.81;81.82;92335.00;5067187;28;20579;-68
2023/11/25 11:33:05;;;;;;;13.70;9.88;;;;;;;2.64;80.68;92314.25;5068662;28;20031;-68
2023/11/25 11:35:37;;;;;;;9.20;6.05;;;;;;;2.65;81.17;92308.22;5068517;28;20044;-69